createdAt,value
2017-11-08T00:00:01.473Z,47.27
2017-11-08T00:01:10.761Z,47.17
2017-11-08T00:02:19.730Z,47.17
2017-11-08T00:03:28.705Z,46.98
2017-11-08T00:04:37.681Z,47.27
2017-11-08T00:05:46.659Z,46.98
2017-11-08T00:06:56.273Z,47.27
2017-11-08T00:08:05.240Z,47.17
2017-11-08T00:09:14.533Z,47.17
2017-11-08T00:10:23.500Z,47.08
2017-11-08T00:11:32.794Z,47.08
2017-11-08T00:12:41.783Z,47.17
2017-11-08T00:13:50.478Z,47.36
2017-11-08T00:14:59.763Z,47.17
2017-11-08T00:16:08.460Z,47.27
2017-11-08T00:17:17.419Z,47.17
2017-11-08T00:18:26.723Z,47.17
2017-11-08T00:19:35.687Z,47.27
2017-11-08T00:20:45.320Z,47.08
2017-11-08T00:21:54.284Z,47.27
2017-11-08T00:23:02.924Z,47.08
2017-11-08T00:24:11.563Z,47.36
2017-11-08T00:25:20.862Z,46.88
2017-11-08T00:26:30.148Z,47.17
2017-11-08T00:27:39.123Z,47.08
2017-11-08T00:28:47.755Z,46.88
2017-11-08T00:29:57.368Z,46.78
2017-11-08T00:31:06.324Z,46.88
2017-11-08T00:32:15.291Z,46.88
2017-11-08T00:33:24.263Z,46.98
2017-11-08T00:34:33.253Z,46.88
2017-11-08T00:35:41.886Z,47.36
2017-11-08T00:36:50.856Z,46.98
2017-11-08T00:37:59.508Z,46.98
2017-11-08T00:39:08.804Z,47.08
2017-11-08T00:40:18.107Z,47.36
2017-11-08T00:41:26.740Z,46.98
2017-11-08T00:42:36.023Z,47.36
2017-11-08T00:43:45.326Z,47.08
2017-11-08T00:44:54.628Z,46.98
2017-11-08T00:46:03.608Z,47.27
2017-11-08T00:47:12.577Z,46.98
2017-11-08T00:48:21.538Z,46.98
2017-11-08T00:49:30.510Z,47.27
2017-11-08T00:50:39.805Z,47.17
2017-11-08T00:51:48.776Z,47.36
2017-11-08T00:52:57.440Z,46.98
2017-11-08T00:54:06.727Z,47.17
2017-11-08T00:55:15.698Z,47.17
2017-11-08T00:56:24.981Z,47.17
2017-11-08T00:57:33.947Z,47.27
2017-11-08T00:58:42.915Z,47.17
2017-11-08T00:59:52.581Z,47.36
2017-11-08T01:01:01.573Z,47.46
2017-11-08T01:02:10.201Z,47.27
2017-11-08T01:03:19.500Z,47.17
2017-11-08T01:04:29.125Z,47.46
2017-11-08T01:05:38.419Z,47.17
2017-11-08T01:06:47.397Z,47.46
2017-11-08T01:07:56.368Z,47.46
2017-11-08T01:09:05.670Z,47.36
2017-11-08T01:10:14.327Z,47.46
2017-11-08T01:11:23.605Z,47.36
2017-11-08T01:12:32.889Z,47.36
2017-11-08T01:13:42.515Z,47.36
2017-11-08T01:14:51.143Z,47.36
2017-11-08T01:16:00.750Z,47.36
2017-11-08T01:17:09.399Z,47.17
2017-11-08T01:18:18.703Z,47.17
2017-11-08T01:19:27.663Z,47.36
2017-11-08T01:20:36.621Z,47.46
2017-11-08T01:21:45.587Z,47.17
2017-11-08T01:22:54.552Z,47.27
2017-11-08T01:24:03.842Z,47.17
2017-11-08T01:25:13.139Z,47.27
2017-11-08T01:26:22.099Z,47.27
2017-11-08T01:27:31.392Z,47.56
2017-11-08T01:28:40.357Z,47.17
2017-11-08T01:29:49.652Z,47.27
2017-11-08T01:30:59.292Z,47.27
2017-11-08T01:32:07.927Z,47.27
2017-11-08T01:33:17.893Z,47.27
2017-11-08T01:34:27.180Z,47.36
2017-11-08T01:35:36.479Z,47.36
2017-11-08T01:36:45.776Z,47.27
2017-11-08T01:37:54.407Z,47.36
2017-11-08T01:39:03.713Z,47.46
2017-11-08T01:40:13.001Z,47.08
2017-11-08T01:41:21.967Z,47.36
2017-11-08T01:42:30.928Z,47.36
2017-11-08T01:43:39.565Z,47.56
2017-11-08T01:44:48.220Z,47.17
2017-11-08T01:45:57.834Z,47.27
2017-11-08T01:47:06.792Z,47.36
2017-11-08T01:48:16.089Z,47.08
2017-11-08T01:49:25.051Z,47.27
2017-11-08T01:50:34.700Z,47.36
2017-11-08T01:51:43.392Z,47.27
2017-11-08T01:52:53.345Z,47.27
2017-11-08T01:54:02.969Z,47.27
2017-11-08T01:55:12.626Z,47.17
2017-11-08T01:56:21.600Z,47.27
2017-11-08T01:57:30.283Z,47.75
2017-11-08T01:58:39.924Z,47.75
2017-11-08T01:59:49.225Z,47.75
2017-11-08T02:00:58.525Z,47.46
2017-11-08T02:02:08.176Z,47.56
2017-11-08T02:03:16.820Z,47.65
2017-11-08T02:04:26.114Z,47.17
2017-11-08T02:05:35.740Z,47.27
2017-11-08T02:06:44.705Z,47.65
2017-11-08T02:07:53.683Z,47.36
2017-11-08T02:09:03.295Z,47.27
2017-11-08T02:10:12.297Z,47.27
2017-11-08T02:11:21.577Z,47.27
2017-11-08T02:12:30.235Z,47.65
2017-11-08T02:13:39.200Z,47.46
2017-11-08T02:14:48.499Z,47.65
2017-11-08T02:15:57.479Z,47.56
2017-11-08T02:17:06.439Z,47.56
2017-11-08T02:18:15.398Z,47.56
2017-11-08T02:19:24.708Z,47.08
2017-11-08T02:20:33.673Z,47.36
2017-11-08T02:21:42.703Z,47.56
2017-11-08T02:22:51.687Z,47.65
2017-11-08T02:24:00.335Z,47.46
2017-11-08T02:25:09.043Z,47.36
2017-11-08T02:26:18.375Z,47.46
2017-11-08T02:27:27.671Z,47.65
2017-11-08T02:28:37.290Z,47.27
2017-11-08T02:29:46.587Z,47.56
2017-11-08T02:30:56.211Z,47.46
2017-11-08T02:32:05.514Z,47.65
2017-11-08T02:33:15.493Z,47.65
2017-11-08T02:34:24.489Z,47.65
2017-11-08T02:35:33.479Z,47.65
2017-11-08T02:36:42.454Z,47.63
2017-11-08T02:37:51.751Z,47.65
2017-11-08T02:39:01.376Z,47.65
2017-11-08T02:40:10.354Z,47.56
2017-11-08T02:41:19.661Z,47.65
2017-11-08T02:42:28.306Z,47.65
2017-11-08T02:43:38.271Z,47.65
2017-11-08T02:44:47.892Z,47.65
2017-11-08T02:45:57.200Z,47.56
2017-11-08T02:47:06.512Z,47.46
2017-11-08T02:48:15.797Z,47.65
2017-11-08T02:49:25.108Z,47.08
2017-11-08T02:50:33.745Z,47.08
2017-11-08T02:51:42.407Z,47.46
2017-11-08T02:52:51.699Z,47.75
2017-11-08T02:54:00.328Z,47.56
2017-11-08T02:55:09.631Z,47.56
2017-11-08T02:56:19.621Z,47.65
2017-11-08T02:57:28.924Z,47.75
2017-11-08T02:58:38.545Z,47.56
2017-11-08T02:59:47.842Z,47.56
2017-11-08T03:00:57.152Z,47.08
2017-11-08T03:02:06.449Z,47.65
2017-11-08T03:03:16.064Z,47.56
2017-11-08T03:04:25.374Z,47.27
2017-11-08T03:05:34.657Z,47.36
2017-11-08T03:06:43.611Z,47.27
2017-11-08T03:07:52.900Z,47.65
2017-11-08T03:09:01.873Z,47.56
2017-11-08T03:10:10.509Z,47.56
2017-11-08T03:11:19.816Z,47.65
2017-11-08T03:12:28.452Z,47.36
2017-11-08T03:13:37.741Z,47.36
2017-11-08T03:14:46.385Z,47.27
2017-11-08T03:15:55.351Z,47.36
2017-11-08T03:17:04.328Z,47.36
2017-11-08T03:18:12.980Z,47.75
2017-11-08T03:19:22.934Z,47.46
2017-11-08T03:20:31.893Z,47.75
2017-11-08T03:21:41.176Z,47.46
2017-11-08T03:22:50.482Z,47.75
2017-11-08T03:23:59.451Z,47.75
2017-11-08T03:25:08.087Z,47.75
2017-11-08T03:26:17.044Z,47.05
2017-11-08T03:27:26.018Z,47.46
2017-11-08T03:28:34.653Z,47.56
2017-11-08T03:29:43.298Z,47.46
2017-11-08T03:30:52.263Z,47.75
2017-11-08T03:32:01.930Z,47.27
2017-11-08T03:33:10.561Z,47.27
2017-11-08T03:34:20.286Z,47.46
2017-11-08T03:35:29.253Z,47.27
2017-11-08T03:36:38.537Z,47.17
2017-11-08T03:37:47.875Z,47.36
2017-11-08T03:38:56.828Z,47.17
2017-11-08T03:40:05.788Z,47.27
2017-11-08T03:41:15.416Z,47.36
2017-11-08T03:42:24.060Z,47.27
2017-11-08T03:43:33.029Z,47.08
2017-11-08T03:44:41.994Z,47.27
2017-11-08T03:45:50.628Z,47.08
2017-11-08T03:46:59.257Z,47.17
2017-11-08T03:48:08.941Z,47.27
2017-11-08T03:49:18.555Z,47.46
2017-11-08T03:50:27.197Z,47.36
2017-11-08T03:51:36.858Z,47.27
2017-11-08T03:52:45.491Z,47.08
2017-11-08T03:53:54.448Z,47.36
2017-11-08T03:55:03.407Z,47.08
2017-11-08T03:56:12.039Z,47.36
2017-11-08T03:57:21.338Z,47.27
2017-11-08T03:58:29.985Z,47.17
2017-11-08T03:59:38.624Z,47.46
2017-11-08T04:00:48.239Z,47.15
2017-11-08T04:01:57.231Z,47.56
2017-11-08T04:03:06.856Z,47.17
2017-11-08T04:04:15.489Z,47.24
2017-11-08T04:05:25.436Z,47.27
2017-11-08T04:06:34.717Z,47.27
2017-11-08T04:07:43.690Z,47.46
2017-11-08T04:08:52.651Z,47.24
2017-11-08T04:10:01.958Z,47.08
2017-11-08T04:11:11.267Z,47.08
2017-11-08T04:12:20.238Z,47.27
2017-11-08T04:13:29.529Z,47.08
2017-11-08T04:14:38.489Z,47.17
2017-11-08T04:15:47.785Z,47.08
2017-11-08T04:16:56.757Z,47.36
2017-11-08T04:18:06.064Z,47.15
2017-11-08T04:19:15.355Z,47.36
2017-11-08T04:20:24.329Z,47.08
2017-11-08T04:21:33.308Z,47.34
2017-11-08T04:22:42.273Z,47.08
2017-11-08T04:23:51.251Z,47.27
2017-11-08T04:25:00.546Z,47.17
2017-11-08T04:26:09.852Z,47.17
2017-11-08T04:27:19.173Z,47.24
2017-11-08T04:28:28.164Z,47.24
2017-11-08T04:29:37.464Z,47.15
2017-11-08T04:30:46.766Z,47.24
2017-11-08T04:31:55.407Z,47.36
2017-11-08T04:33:04.712Z,47.46
2017-11-08T04:34:13.676Z,47.34
2017-11-08T04:35:22.652Z,47.44
2017-11-08T04:36:31.957Z,47.46
2017-11-08T04:37:40.933Z,47.27
2017-11-08T04:38:50.865Z,47.15
2017-11-08T04:40:00.160Z,47.24
2017-11-08T04:41:09.182Z,47.24
2017-11-08T04:42:18.466Z,47.24
2017-11-08T04:43:27.127Z,47.27
2017-11-08T04:44:36.106Z,47.27
2017-11-08T04:45:44.758Z,47.17
2017-11-08T04:46:54.055Z,47.24
2017-11-08T04:48:03.666Z,47.24
2017-11-08T04:49:12.297Z,47.24
2017-11-08T04:50:21.272Z,47.24
2017-11-08T04:51:29.915Z,47.27
2017-11-08T04:52:38.559Z,47.36
2017-11-08T04:53:47.852Z,47.27
2017-11-08T04:54:57.790Z,47.53
2017-11-08T04:56:07.416Z,47.17
2017-11-08T04:57:16.721Z,47.34
2017-11-08T04:58:25.683Z,47.53
2017-11-08T04:59:34.323Z,47.05
2017-11-08T05:00:43.291Z,47.15
2017-11-08T05:01:52.259Z,47.24
2017-11-08T05:03:01.565Z,47.53
2017-11-08T05:04:10.194Z,47.24
2017-11-08T05:05:18.851Z,47.24
2017-11-08T05:06:28.129Z,47.27
2017-11-08T05:07:36.764Z,47.27
2017-11-08T05:08:45.734Z,47.15
2017-11-08T05:09:54.706Z,47.27
2017-11-08T05:11:03.347Z,47.27
2017-11-08T05:12:12.638Z,47.08
2017-11-08T05:13:21.602Z,47.15
2017-11-08T05:14:30.239Z,47.15
2017-11-08T05:15:39.546Z,47.27
2017-11-08T05:16:48.186Z,47.24
2017-11-08T05:17:57.490Z,47.53
2017-11-08T05:19:06.806Z,47.15
2017-11-08T05:20:16.090Z,47.05
2017-11-08T05:21:24.725Z,47.34
2017-11-08T05:22:33.692Z,47.53
2017-11-08T05:23:42.399Z,47.17
2017-11-08T05:24:51.377Z,47.15
2017-11-08T05:26:00.687Z,47.56
2017-11-08T05:27:10.017Z,47.15
2017-11-08T05:28:18.994Z,47.15
2017-11-08T05:29:27.951Z,47.36
2017-11-08T05:30:36.595Z,47.36
2017-11-08T05:31:45.557Z,47.24
2017-11-08T05:32:54.861Z,47.24
2017-11-08T05:34:03.828Z,47.15
2017-11-08T05:35:12.511Z,47.36
2017-11-08T05:36:21.826Z,47.24
2017-11-08T05:37:30.473Z,47.15
2017-11-08T05:38:39.434Z,47.36
2017-11-08T05:39:48.725Z,47.34
2017-11-08T05:40:57.688Z,47.24
2017-11-08T05:42:06.708Z,47.27
2017-11-08T05:43:15.336Z,47.24
2017-11-08T05:44:23.986Z,47.44
2017-11-08T05:45:32.626Z,47.24
2017-11-08T05:46:41.592Z,47.24
2017-11-08T05:47:50.892Z,47.24
2017-11-08T05:48:59.859Z,47.27
2017-11-08T05:50:09.847Z,47.24
2017-11-08T05:51:18.825Z,47.17
2017-11-08T05:52:27.478Z,47.24
2017-11-08T05:53:36.459Z,47.27
2017-11-08T05:54:45.444Z,47.27
2017-11-08T05:55:54.442Z,47.24
2017-11-08T05:57:04.073Z,47.24
2017-11-08T05:58:13.368Z,47.24
2017-11-08T05:59:22.670Z,47.36
2017-11-08T06:00:31.665Z,47.34
2017-11-08T06:01:40.963Z,47.24
2017-11-08T06:02:50.292Z,47.53
2017-11-08T06:03:59.924Z,47.34
2017-11-08T06:05:09.868Z,47.34
2017-11-08T06:06:19.174Z,47.36
2017-11-08T06:07:28.146Z,46.95
2017-11-08T06:08:36.804Z,47.44
2017-11-08T06:09:45.758Z,47.34
2017-11-08T06:10:54.734Z,47.34
2017-11-08T06:12:03.380Z,47.34
2017-11-08T06:13:12.048Z,47.34
2017-11-08T06:14:20.700Z,47.34
2017-11-08T06:15:29.711Z,47.34
2017-11-08T06:16:38.684Z,47.36
2017-11-08T06:17:48.087Z,47.24
2017-11-08T06:18:57.069Z,47.36
2017-11-08T06:20:06.399Z,47.17
2017-11-08T06:21:15.038Z,47.44
2017-11-08T06:22:24.340Z,47.44
2017-11-08T06:23:33.336Z,47.24
2017-11-08T06:24:42.308Z,47.17
2017-11-08T06:25:51.478Z,47.36
2017-11-08T06:27:00.519Z,47.44
2017-11-08T06:28:09.224Z,47.46
2017-11-08T06:29:18.190Z,47.44
2017-11-08T06:30:27.161Z,47.53
2017-11-08T06:31:35.823Z,47.24
2017-11-08T06:32:45.117Z,47.34
2017-11-08T06:33:54.092Z,47.44
2017-11-08T06:35:03.170Z,47.15
2017-11-08T06:36:12.785Z,47.27
2017-11-08T06:37:21.420Z,47.34
2017-11-08T06:38:30.717Z,47.17
2017-11-08T06:39:40.028Z,47.17
2017-11-08T06:40:48.988Z,47.17
2017-11-08T06:41:57.956Z,47.15
2017-11-08T06:43:06.937Z,47.15
2017-11-08T06:44:15.891Z,47.24
2017-11-08T06:45:25.204Z,47.15
2017-11-08T06:46:34.871Z,47.24
2017-11-08T06:47:43.523Z,47.15
2017-11-08T06:48:53.147Z,47.15
2017-11-08T06:50:01.782Z,47.15
2017-11-08T06:51:10.752Z,47.44
2017-11-08T06:52:19.774Z,47.15
2017-11-08T06:53:29.082Z,47.15
2017-11-08T06:54:38.048Z,47.17
2017-11-08T06:55:47.352Z,47.34
2017-11-08T06:56:56.986Z,46.98
2017-11-08T06:58:05.619Z,46.88
2017-11-08T06:59:14.924Z,47.17
2017-11-08T07:00:23.887Z,46.98
2017-11-08T07:01:32.877Z,46.98
2017-11-08T07:02:41.552Z,47.17
2017-11-08T07:03:50.228Z,47.08
2017-11-08T07:04:59.198Z,46.5
2017-11-08T07:06:07.845Z,46.31
2017-11-08T07:07:17.214Z,46.4
2017-11-08T07:08:26.524Z,46.52
2017-11-08T07:09:36.146Z,46.33
2017-11-08T07:10:45.773Z,46.33
2017-11-08T07:11:55.724Z,45.65
2017-11-08T07:13:04.354Z,46.04
2017-11-08T07:14:13.320Z,45.46
2017-11-08T07:15:22.290Z,45.46
2017-11-08T07:16:31.966Z,45.68
2017-11-08T07:17:41.261Z,45.39
2017-11-08T07:18:50.580Z,45.2
2017-11-08T07:19:59.246Z,45.2
2017-11-08T07:21:08.214Z,45.2
2017-11-08T07:22:17.831Z,45
2017-11-08T07:23:27.787Z,45.12
2017-11-08T07:24:37.740Z,44.73
2017-11-08T07:25:47.044Z,44.93
2017-11-08T07:26:55.698Z,44.83
2017-11-08T07:28:04.990Z,44.64
2017-11-08T07:29:14.280Z,44.54
2017-11-08T07:30:23.252Z,44.45
2017-11-08T07:31:32.563Z,44.54
2017-11-08T07:32:41.857Z,44.64
2017-11-08T07:33:50.832Z,44.64
2017-11-08T07:34:59.799Z,44.64
2017-11-08T07:36:09.118Z,44.64
2017-11-08T07:37:18.438Z,44.66
2017-11-08T07:38:27.431Z,44.73
2017-11-08T07:39:37.417Z,44.73
2017-11-08T07:40:46.389Z,44.73
2017-11-08T07:41:56.022Z,44.56
2017-11-08T07:43:05.327Z,44.64
2017-11-08T07:44:14.319Z,44.76
2017-11-08T07:45:23.316Z,44.56
2017-11-08T07:46:32.638Z,44.76
2017-11-08T07:47:42.623Z,44.56
2017-11-08T07:48:51.278Z,44.56
2017-11-08T07:49:59.932Z,44.56
2017-11-08T07:51:08.907Z,44.56
2017-11-08T07:52:17.882Z,44.76
2017-11-08T07:53:26.858Z,44.56
2017-11-08T07:54:35.520Z,44.56
2017-11-08T07:55:45.329Z,44.66
2017-11-08T07:56:54.693Z,44.76
2017-11-08T07:58:04.410Z,44.56
2017-11-08T07:59:13.815Z,44.56
2017-11-08T08:00:22.977Z,44.37
2017-11-08T08:01:31.694Z,44.66
2017-11-08T08:02:41.013Z,44.95
2017-11-08T08:03:49.989Z,44.95
2017-11-08T08:04:59.057Z,44.76
2017-11-08T08:06:08.397Z,44.85
2017-11-08T08:07:17.475Z,44.95
2017-11-08T08:08:26.867Z,44.76
2017-11-08T08:09:35.591Z,44.95
2017-11-08T08:10:44.684Z,45.14
2017-11-08T08:11:53.774Z,45.04
2017-11-08T08:13:02.867Z,45.62
2017-11-08T08:14:12.221Z,45.24
2017-11-08T08:15:20.961Z,45.43
2017-11-08T08:16:30.671Z,45.04
2017-11-08T08:17:40.437Z,45.34
2017-11-08T08:18:50.080Z,45.51
2017-11-08T08:19:59.387Z,45.43
2017-11-08T08:21:08.443Z,45.7
2017-11-08T08:22:17.445Z,45.79
2017-11-08T08:23:26.829Z,45.6
2017-11-08T08:24:35.873Z,45.31
2017-11-08T08:25:44.585Z,45.7
2017-11-08T08:26:53.987Z,45.6
2017-11-08T08:28:02.978Z,45.51
2017-11-08T08:29:12.940Z,45.99
2017-11-08T08:30:22.371Z,46.08
2017-11-08T08:31:31.444Z,45.89
2017-11-08T08:32:40.564Z,45.6
2017-11-08T08:33:49.603Z,45.79
2017-11-08T08:34:58.361Z,45.89
2017-11-08T08:36:08.038Z,46.18
2017-11-08T08:37:17.096Z,46.47
2017-11-08T08:38:26.479Z,46.37
2017-11-08T08:39:35.481Z,46.28
2017-11-08T08:40:44.900Z,46.15
2017-11-08T08:41:53.656Z,46.47
2017-11-08T08:43:02.685Z,46.76
2017-11-08T08:44:12.016Z,46.56
2017-11-08T08:45:21.343Z,46.25
2017-11-08T08:46:30.328Z,46.37
2017-11-08T08:47:39.297Z,46.45
2017-11-08T08:48:48.587Z,46.45
2017-11-08T08:49:57.891Z,46.56
2017-11-08T08:51:06.545Z,46.55
2017-11-08T08:52:15.517Z,46.64
2017-11-08T08:53:24.813Z,46.55
2017-11-08T08:54:33.802Z,46.73
2017-11-08T08:55:42.458Z,46.55
2017-11-08T08:56:51.773Z,46.64
2017-11-08T08:58:00.426Z,46.64
2017-11-08T08:59:09.405Z,46.35
2017-11-08T09:00:18.048Z,46.73
2017-11-08T09:01:27.039Z,46.73
2017-11-08T09:02:35.700Z,46.64
2017-11-08T09:03:44.355Z,46.73
2017-11-08T09:04:53.334Z,47.31
2017-11-08T09:06:03.292Z,46.93
2017-11-08T09:07:12.927Z,47.03
2017-11-08T09:08:21.905Z,46.93
2017-11-08T09:09:30.940Z,47.12
2017-11-08T09:10:40.243Z,47.12
2017-11-08T09:11:49.886Z,47.22
2017-11-08T09:12:59.203Z,47.22
2017-11-08T09:14:07.863Z,47.12
2017-11-08T09:15:17.175Z,47.12
2017-11-08T09:16:26.216Z,47.22
2017-11-08T09:17:35.247Z,47.03
2017-11-08T09:18:44.243Z,47.03
2017-11-08T09:19:53.236Z,47.03
2017-11-08T09:21:02.530Z,47.03
2017-11-08T09:22:11.199Z,47.03
2017-11-08T09:23:20.840Z,47.03
2017-11-08T09:24:30.812Z,47.22
2017-11-08T09:25:40.140Z,47.22
2017-11-08T09:26:49.473Z,47.22
2017-11-08T09:27:58.462Z,47.31
2017-11-08T09:29:08.417Z,47.31
2017-11-08T09:30:17.082Z,47.31
2017-11-08T09:31:26.407Z,47.03
2017-11-08T09:32:35.735Z,47.12
2017-11-08T09:33:45.038Z,47.22
2017-11-08T09:34:54.112Z,47.22
2017-11-08T09:36:04.088Z,47.31
2017-11-08T09:37:13.941Z,47.31
2017-11-08T09:38:23.236Z,47.22
2017-11-08T09:39:32.207Z,47.22
2017-11-08T09:40:41.535Z,47.22
2017-11-08T09:41:50.842Z,46.93
2017-11-08T09:42:59.823Z,47.29
2017-11-08T09:44:08.803Z,47.03
2017-11-08T09:45:17.778Z,46.91
2017-11-08T09:46:26.489Z,46.91
2017-11-08T09:47:35.460Z,47
2017-11-08T09:48:44.109Z,46.91
2017-11-08T09:49:52.823Z,46.81
2017-11-08T09:51:01.479Z,46.91
2017-11-08T09:52:11.462Z,47.31
2017-11-08T09:53:20.115Z,47.29
2017-11-08T09:54:28.824Z,47.39
2017-11-08T09:55:38.121Z,47.39
2017-11-08T09:56:47.225Z,47.29
2017-11-08T09:57:55.872Z,47.29
2017-11-08T09:59:04.546Z,47.29
2017-11-08T10:00:13.845Z,47.1
2017-11-08T10:01:22.820Z,47.19
2017-11-08T10:02:31.800Z,47.39
2017-11-08T10:03:40.797Z,47
2017-11-08T10:04:49.445Z,47
2017-11-08T10:05:58.125Z,47.03
2017-11-08T10:07:07.443Z,47
2017-11-08T10:08:16.091Z,47.29
2017-11-08T10:09:25.133Z,47.19
2017-11-08T10:10:33.823Z,47.29
2017-11-08T10:11:42.785Z,47.19
2017-11-08T10:12:51.787Z,47.29
2017-11-08T10:14:00.405Z,47.19
2017-11-08T10:15:09.068Z,47.19
2017-11-08T10:16:18.367Z,47.19
2017-11-08T10:17:27.991Z,47.1
2017-11-08T10:18:37.294Z,47.29
2017-11-08T10:19:46.767Z,47.19
2017-11-08T10:20:56.414Z,47.19
2017-11-08T10:22:05.066Z,47.19
2017-11-08T10:23:14.050Z,47.19
2017-11-08T10:24:23.352Z,47.19
2017-11-08T10:25:32.008Z,47.29
2017-11-08T10:26:41.003Z,47.19
2017-11-08T10:27:49.985Z,47.19
2017-11-08T10:28:59.615Z,47.19
2017-11-08T10:30:08.930Z,47.1
2017-11-08T10:31:17.928Z,47.19
2017-11-08T10:32:27.587Z,47.19
2017-11-08T10:33:36.248Z,47.19
2017-11-08T10:34:44.892Z,47.29
2017-11-08T10:35:53.874Z,47.19
2017-11-08T10:37:02.510Z,47.29
2017-11-08T10:38:11.491Z,47.29
2017-11-08T10:39:20.487Z,47.19
2017-11-08T10:40:29.456Z,47.29
2017-11-08T10:41:38.773Z,47.19
2017-11-08T10:42:48.057Z,47.1
2017-11-08T10:43:57.359Z,47.19
2017-11-08T10:45:07.335Z,47.19
2017-11-08T10:46:16.331Z,47.19
2017-11-08T10:47:25.963Z,47.1
2017-11-08T10:48:35.588Z,47.29
2017-11-08T10:49:44.923Z,47.1
2017-11-08T10:50:54.225Z,47.29
2017-11-08T10:52:02.932Z,47.19
2017-11-08T10:53:12.277Z,47.19
2017-11-08T10:54:22.240Z,47.29
2017-11-08T10:55:31.542Z,47.39
2017-11-08T10:56:41.174Z,47.29
2017-11-08T10:57:50.812Z,47.29
2017-11-08T10:59:00.140Z,47
2017-11-08T11:00:10.133Z,47.1
2017-11-08T11:01:18.785Z,47.39
2017-11-08T11:02:27.770Z,47
2017-11-08T11:03:37.439Z,47.29
2017-11-08T11:04:47.096Z,47.29
2017-11-08T11:05:57.421Z,47.1
2017-11-08T11:07:06.745Z,46.91
2017-11-08T11:08:15.747Z,47
2017-11-08T11:09:25.064Z,47
2017-11-08T11:10:34.362Z,47
2017-11-08T11:11:43.364Z,47
2017-11-08T11:12:52.371Z,47
2017-11-08T11:14:02.024Z,47
2017-11-08T11:15:11.328Z,47
2017-11-08T11:16:21.289Z,46.91
2017-11-08T11:17:30.599Z,47
2017-11-08T11:18:39.933Z,47.19
2017-11-08T11:19:48.589Z,47
2017-11-08T11:20:58.231Z,47.19
2017-11-08T11:22:07.884Z,47
2017-11-08T11:23:16.876Z,47.1
2017-11-08T11:24:26.548Z,47.19
2017-11-08T11:25:35.861Z,47.19
2017-11-08T11:26:45.160Z,47.19
2017-11-08T11:27:54.548Z,47.29
2017-11-08T11:29:04.530Z,47.19
2017-11-08T11:30:14.503Z,47.29
2017-11-08T11:31:23.817Z,47.19
2017-11-08T11:32:33.181Z,47
2017-11-08T11:33:42.806Z,47.19
2017-11-08T11:34:52.774Z,47.29
2017-11-08T11:36:02.089Z,47.19
2017-11-08T11:37:12.394Z,47.29
2017-11-08T11:38:22.032Z,47.29
2017-11-08T11:39:31.352Z,47.29
2017-11-08T11:40:40.340Z,47.1
2017-11-08T11:41:49.674Z,47
2017-11-08T11:42:59.027Z,47.19
2017-11-08T11:44:09.053Z,47.1
2017-11-08T11:45:18.429Z,47
2017-11-08T11:46:28.415Z,47
2017-11-08T11:47:38.377Z,47
2017-11-08T11:48:48.024Z,47
2017-11-08T11:49:57.997Z,47.29
2017-11-08T11:51:07.302Z,47
2017-11-08T11:52:16.605Z,47.1
2017-11-08T11:53:26.236Z,46.91
2017-11-08T11:54:35.878Z,47.1
2017-11-08T11:55:44.880Z,47
2017-11-08T11:56:54.194Z,47.1
2017-11-08T11:58:03.513Z,47.1
2017-11-08T11:59:12.498Z,47
2017-11-08T12:00:21.825Z,47
2017-11-08T12:01:31.121Z,47.1
2017-11-08T12:02:40.770Z,47.19
2017-11-08T12:03:50.402Z,47
2017-11-08T12:05:00.041Z,47.1
2017-11-08T12:06:09.346Z,47.19
2017-11-08T12:07:18.329Z,47
2017-11-08T12:08:27.650Z,47.19
2017-11-08T12:09:36.979Z,47.19
2017-11-08T12:10:46.303Z,47.19
2017-11-08T12:11:55.278Z,47.29
2017-11-08T12:13:05.267Z,47.19
2017-11-08T12:14:14.574Z,47.1
2017-11-08T12:15:23.881Z,47.19
2017-11-08T12:16:32.525Z,47.39
2017-11-08T12:17:42.181Z,47.19
2017-11-08T12:18:51.925Z,47.19
2017-11-08T12:20:01.244Z,47.19
2017-11-08T12:21:10.236Z,47.39
2017-11-08T12:22:19.876Z,47
2017-11-08T12:23:29.199Z,47.19
2017-11-08T12:24:38.498Z,47.19
2017-11-08T12:25:48.459Z,47.19
2017-11-08T12:26:58.123Z,47.19
2017-11-08T12:28:07.110Z,47.1
2017-11-08T12:29:16.742Z,47.29
2017-11-08T12:30:26.375Z,47.29
2017-11-08T12:31:36.037Z,47.1
2017-11-08T12:32:45.006Z,47.1
2017-11-08T12:33:54.669Z,47.39
2017-11-08T12:35:03.985Z,47.1
2017-11-08T12:36:13.948Z,47.19
2017-11-08T12:37:23.271Z,47.19
2017-11-08T12:38:32.908Z,47.19
2017-11-08T12:39:42.564Z,47.19
2017-11-08T12:40:52.187Z,47.19
2017-11-08T12:42:02.156Z,47.19
2017-11-08T12:43:11.130Z,47.19
2017-11-08T12:44:20.433Z,47.29
2017-11-08T12:45:29.779Z,47.19
2017-11-08T12:46:39.412Z,47.19
2017-11-08T12:47:48.841Z,47.29
2017-11-08T12:48:58.478Z,47.19
2017-11-08T12:50:08.450Z,47.29
2017-11-08T12:51:18.130Z,47.19
2017-11-08T12:52:27.454Z,47.1
2017-11-08T12:53:37.443Z,47.19
2017-11-08T12:54:46.768Z,47.1
2017-11-08T12:55:55.752Z,47.29
2017-11-08T12:57:05.390Z,47.39
2017-11-08T12:58:14.697Z,47.29
2017-11-08T12:59:24.465Z,47.29
2017-11-08T13:00:33.790Z,47.29
2017-11-08T13:01:43.110Z,47.29
2017-11-08T13:02:52.788Z,47.29
2017-11-08T13:04:03.088Z,47.19
2017-11-08T13:05:13.080Z,47.19
2017-11-08T13:06:23.390Z,47.19
2017-11-08T13:07:33.368Z,47.19
2017-11-08T13:08:43.009Z,47.29
2017-11-08T13:09:51.982Z,47.19
2017-11-08T13:11:01.629Z,47.1
2017-11-08T13:12:11.035Z,47.29
2017-11-08T13:13:20.712Z,47.29
2017-11-08T13:14:30.091Z,47.27
2017-11-08T13:15:39.421Z,47.29
2017-11-08T13:16:48.738Z,47.29
2017-11-08T13:17:57.418Z,47.19
2017-11-08T13:19:07.084Z,47.29
2017-11-08T13:20:16.730Z,47.19
2017-11-08T13:21:26.034Z,47.19
2017-11-08T13:22:34.668Z,47.29
2017-11-08T13:23:43.985Z,47.29
2017-11-08T13:24:52.990Z,47.19
2017-11-08T13:26:02.309Z,47.19
2017-11-08T13:27:10.976Z,47.19
2017-11-08T13:28:20.301Z,47.19
2017-11-08T13:29:28.949Z,47.19
2017-11-08T13:30:38.254Z,47.19
2017-11-08T13:31:47.910Z,47
2017-11-08T13:32:57.564Z,47.19
2017-11-08T13:34:07.213Z,47.19
2017-11-08T13:35:16.860Z,47
2017-11-08T13:36:25.848Z,47.29
2017-11-08T13:37:35.153Z,47.29
2017-11-08T13:38:44.458Z,47.19
2017-11-08T13:39:53.457Z,47.08
2017-11-08T13:41:03.448Z,47.19
2017-11-08T13:42:12.110Z,47.1
2017-11-08T13:43:21.433Z,47.29
2017-11-08T13:44:30.411Z,47.29
2017-11-08T13:45:39.741Z,47.29
2017-11-08T13:46:49.720Z,47.29
2017-11-08T13:47:58.709Z,47.27
2017-11-08T13:49:07.741Z,47.1
2017-11-08T13:50:17.423Z,47.27
2017-11-08T13:51:27.065Z,47.29
2017-11-08T13:52:36.055Z,47.29
2017-11-08T13:53:45.365Z,47.29
2017-11-08T13:54:55.038Z,47.19
2017-11-08T13:56:05.005Z,47.27
2017-11-08T13:57:14.316Z,47.27
2017-11-08T13:58:24.295Z,47.17
2017-11-08T13:59:34.335Z,47.17
2017-11-08T14:00:43.978Z,47.08
2017-11-08T14:01:52.959Z,47.27
2017-11-08T14:03:02.619Z,47.27
2017-11-08T14:04:11.597Z,47.17
2017-11-08T14:05:21.236Z,47.27
2017-11-08T14:06:30.537Z,47.27
2017-11-08T14:07:40.533Z,47.17
2017-11-08T14:08:49.517Z,47.19
2017-11-08T14:09:59.138Z,47.17
2017-11-08T14:11:08.788Z,47.17
2017-11-08T14:12:18.095Z,47.17
2017-11-08T14:13:27.409Z,47.27
2017-11-08T14:14:36.054Z,47.17
2017-11-08T14:15:45.688Z,47.27
2017-11-08T14:16:55.328Z,47.27
2017-11-08T14:18:04.978Z,46.98
2017-11-08T14:19:14.279Z,47.27
2017-11-08T14:20:23.608Z,47.27
2017-11-08T14:21:32.577Z,47.27
2017-11-08T14:22:41.584Z,47.27
2017-11-08T14:23:50.906Z,47.27
2017-11-08T14:24:59.914Z,47.27
2017-11-08T14:26:09.225Z,46.98
2017-11-08T14:27:18.260Z,47.27
2017-11-08T14:28:27.570Z,46.98
2017-11-08T14:29:36.886Z,47.27
2017-11-08T14:30:46.211Z,47.36
2017-11-08T14:31:56.204Z,47.27
2017-11-08T14:33:06.203Z,47.08
2017-11-08T14:34:15.539Z,47.27
2017-11-08T14:35:25.532Z,47.27
2017-11-08T14:36:35.165Z,47.08
2017-11-08T14:37:44.526Z,47.17
2017-11-08T14:38:53.854Z,47.17
2017-11-08T14:40:03.844Z,46.88
2017-11-08T14:41:13.509Z,46.98
2017-11-08T14:42:23.155Z,47.17
2017-11-08T14:43:32.151Z,47.08
2017-11-08T14:44:41.515Z,47.08
2017-11-08T14:45:50.176Z,47.17
2017-11-08T14:46:59.502Z,47.08
2017-11-08T14:48:08.837Z,47.08
2017-11-08T14:49:18.468Z,46.98
2017-11-08T14:50:27.449Z,46.88
2017-11-08T14:51:36.783Z,46.98
2017-11-08T14:52:45.777Z,46.98
2017-11-08T14:53:55.097Z,47.08
2017-11-08T14:55:04.761Z,47.17